Time;durP1;ratioP1;P1;durP2;ratioP2;P2;SDS_P1;SDS_P2;PMS_P1;PMS_P2;Temp;Humidity;BMP_temperature;BMP_pressure;BME280_temperature;BME280_humidity;BME280_pressure;Samples;Min_cycle;Max_cycle;Signal;HPM_P1;HPM_P2
2022/10/18 00:01:04;;;;;;;18.08;10.98;;;;;;;14.23;100.00;102221.41;5027386;28;20072;-80
2022/10/18 00:03:29;;;;;;;17.52;10.23;;;;;;;14.22;100.00;102212.25;5034141;28;20072;-80
2022/10/18 00:05:55;;;;;;;18.63;10.15;;;;;;;14.24;100.00;102206.66;5043731;28;20392;-80
2022/10/18 00:08:20;;;;;;;15.05;10.60;;;;;;;14.22;100.00;102208.63;5057322;28;20568;-79
2022/10/18 00:10:46;;;;;;;20.50;11.85;;;;;;;14.25;100.00;102202.88;5009080;28;20043;-80
2022/10/18 00:13:11;;;;;;;18.77;9.93;;;;;;;14.22;100.00;102203.13;5058541;28;20052;-80
2022/10/18 00:15:37;;;;;;;27.52;10.50;;;;;;;14.25;100.00;102208.38;5025762;28;20029;-79
2022/10/18 00:18:02;;;;;;;17.83;10.57;;;;;;;14.18;100.00;102185.91;5059159;28;20541;-80
2022/10/18 00:20:28;;;;;;;14.77;10.30;;;;;;;14.28;100.00;102199.91;5043292;28;20029;-80
2022/10/18 00:22:54;;;;;;;15.93;10.63;;;;;;;14.26;100.00;102197.25;5040390;28;20041;-80
2022/10/18 00:25:19;;;;;;;19.73;10.98;;;;;;;14.18;100.00;102174.03;5043860;28;20138;-80
2022/10/18 00:27:45;;;;;;;16.20;11.38;;;;;;;14.21;100.00;102184.81;5026819;28;20033;-79
2022/10/18 00:30:11;;;;;;;19.17;11.00;;;;;;;14.21;100.00;102182.94;5026576;28;20035;-80
2022/10/18 00:32:37;;;;;;;13.55;10.15;;;;;;;14.20;100.00;102180.31;5032943;28;20036;-79
2022/10/18 00:35:04;;;;;;;17.17;10.45;;;;;;;14.26;100.00;102194.50;5060986;28;20036;-79
2022/10/18 00:37:30;;;;;;;18.80;10.10;;;;;;;14.26;100.00;102189.00;5064273;28;20032;-80
2022/10/18 00:39:56;;;;;;;14.25;10.20;;;;;;;14.25;100.00;102181.75;5059902;28;20040;-80
2022/10/18 00:42:25;;;;;;;17.38;10.65;;;;;;;14.34;100.00;102192.06;5045445;28;20047;-79
2022/10/18 00:44:51;;;;;;;17.80;11.52;;;;;;;14.39;100.00;102199.13;5047369;28;20029;-79
2022/10/18 00:47:18;;;;;;;17.52;11.32;;;;;;;14.29;100.00;102185.16;5038924;28;20160;-78
2022/10/18 00:49:52;;;;;;;18.83;10.75;;;;;;;14.37;100.00;102192.84;5038072;28;20025;-78
2022/10/18 00:52:26;;;;;;;22.77;11.80;;;;;;;14.38;100.00;102198.25;5025009;28;20135;-79
2022/10/18 00:54:54;;;;;;;21.35;10.77;;;;;;;14.29;100.00;102187.91;5058070;28;20024;-79
2022/10/18 00:57:19;;;;;;;17.30;10.60;;;;;;;14.41;100.00;102195.25;5042638;28;20623;-79
2022/10/18 00:59:46;;;;;;;18.25;11.32;;;;;;;14.43;100.00;102193.28;5058075;28;20064;-79
2022/10/18 01:02:17;;;;;;;15.68;10.43;;;;;;;14.38;100.00;102192.75;5056437;28;20032;-79
2022/10/18 01:04:44;;;;;;;18.83;11.05;;;;;;;14.37;100.00;102195.63;5036426;28;20127;-79
2022/10/18 01:07:35;;;;;;;13.98;10.05;;;;;;;14.38;100.00;102192.75;5041549;28;20033;-79
2022/10/18 01:10:25;;;;;;;17.52;11.32;;;;;;;14.44;100.00;102196.91;5073661;28;20028;-79
2022/10/18 01:13:20;;;;;;;20.45;11.15;;;;;;;14.41;100.00;102206.28;5058215;28;20029;-80
2022/10/18 01:16:01;;;;;;;28.02;11.45;;;;;;;14.42;100.00;102205.28;5055908;28;20041;-79
2022/10/18 01:18:57;;;;;;;20.45;11.80;;;;;;;14.44;100.00;102208.81;5054727;28;20053;-79
2022/10/18 01:21:43;;;;;;;13.77;10.45;;;;;;;14.40;100.00;102200.91;5024602;28;20045;-80
2022/10/18 01:24:36;;;;;;;16.92;10.98;;;;;;;14.41;100.00;102205.41;5025706;28;20070;-79
2022/10/18 01:27:21;;;;;;;;;;;;;;;14.43;100.00;102207.06;5057613;28;20040;-79
2022/10/18 01:30:05;;;;;;;17.38;10.57;;;;;;;14.46;100.00;102215.09;5057702;28;19913;-79
2022/10/18 01:32:39;;;;;;;19.55;12.35;;;;;;;14.31;100.00;102196.94;5058895;28;20039;-79
2022/10/18 01:35:13;;;;;;;17.42;11.63;;;;;;;14.41;100.00;102214.53;5041390;28;20033;-79
2022/10/18 01:37:43;;;;;;;19.30;11.07;;;;;;;14.45;100.00;102218.84;5059981;28;20044;-79
2022/10/18 01:40:13;;;;;;;17.90;10.52;;;;;;;14.42;100.00;102216.31;5053210;28;20561;-79
2022/10/18 01:42:39;;;;;;;16.10;11.77;;;;;;;14.43;100.00;102209.81;5037579;28;20473;-79
2022/10/18 01:45:07;;;;;;;23.23;11.13;;;;;;;14.45;100.00;102207.81;5038017;28;20099;-80
2022/10/18 01:47:34;;;;;;;19.15;11.23;;;;;;;14.38;100.00;102200.09;5049473;28;20029;-79
2022/10/18 01:50:01;;;;;;;21.73;11.95;;;;;;;14.37;100.00;102207.50;5055674;28;20040;-79
2022/10/18 01:52:27;;;;;;;21.98;11.07;;;;;;;14.36;100.00;102202.97;5057160;28;20037;-79
2022/10/18 01:54:54;;;;;;;17.45;11.60;;;;;;;14.42;100.00;102212.69;5053914;28;20039;-79
2022/10/18 01:57:58;;;;;;;18.15;11.68;;;;;;;14.40;100.00;102211.94;5056693;28;20056;-80
2022/10/18 02:00:27;;;;;;;;;;;;;;;14.43;100.00;102218.09;5040836;28;20032;-79
2022/10/18 02:03:10;;;;;;;21.48;11.18;;;;;;;14.37;100.00;102210.25;5054110;28;19913;-79
2022/10/18 02:05:56;;;;;;;19.27;12.10;;;;;;;14.45;100.00;102215.22;5056601;28;20039;-79
2022/10/18 02:08:33;;;;;;;17.63;11.50;;;;;;;14.44;100.00;102208.81;5046259;28;20100;-79
2022/10/18 02:11:12;;;;;;;18.13;11.00;;;;;;;14.38;100.00;102206.53;5048730;28;20496;-79
2022/10/18 02:13:42;;;;;;;18.92;12.23;;;;;;;14.34;100.00;102205.84;5021799;28;20500;-79
2022/10/18 02:16:14;;;;;;;22.02;11.80;;;;;;;14.33;100.00;102205.94;5037266;28;20024;-78
2022/10/18 02:18:45;;;;;;;22.50;11.25;;;;;;;14.39;100.00;102213.78;5054862;28;20052;-79
2022/10/18 02:21:14;;;;;;;21.50;11.68;;;;;;;14.37;100.00;102206.63;5056335;28;20434;-79
2022/10/18 02:23:43;;;;;;;20.83;11.60;;;;;;;14.43;100.00;102217.19;5038462;28;20036;-79
2022/10/18 02:26:09;;;;;;;25.73;12.05;;;;;;;14.33;100.00;102200.44;5055800;28;20025;-78
2022/10/18 02:28:34;;;;;;;22.70;12.10;;;;;;;14.29;100.00;102199.78;5052131;28;20052;-79
2022/10/18 02:31:25;;;;;;;22.05;11.90;;;;;;;14.33;100.00;102205.94;5056471;28;20041;-79
2022/10/18 02:34:03;;;;;;;19.95;12.02;;;;;;;14.34;100.00;102208.59;5057028;28;20041;-79
2022/10/18 02:36:37;;;;;;;18.88;11.45;;;;;;;14.30;100.00;102209.84;5036988;28;20040;-79
2022/10/18 02:39:15;;;;;;;20.27;11.23;;;;;;;14.33;100.00;102211.47;5038046;28;20047;-79
2022/10/18 02:41:41;;;;;;;25.40;12.38;;;;;;;14.38;100.00;102217.53;5036891;28;20030;-79
2022/10/18 02:44:07;;;;;;;23.38;12.45;;;;;;;14.28;100.00;102203.56;5070550;28;20036;-79
2022/10/18 02:46:33;;;;;;;22.52;12.82;;;;;;;14.21;100.00;102188.47;5036397;28;20112;-80
2022/10/18 02:48:58;;;;;;;26.20;12.05;;;;;;;14.33;100.00;102205.94;5035392;28;20040;-79
2022/10/18 02:51:24;;;;;;;19.52;12.32;;;;;;;14.45;100.00;102216.09;5037606;28;20104;-80
2022/10/18 02:53:50;;;;;;;18.17;12.00;;;;;;;14.44;100.00;102210.69;5036617;28;20090;-79
2022/10/18 02:56:15;;;;;;;28.67;13.75;;;;;;;14.43;100.00;102214.41;5042959;28;20462;-79
2022/10/18 02:58:41;;;;;;;23.00;12.52;;;;;;;14.42;100.00;102210.81;5044443;28;20503;-79
2022/10/18 03:01:06;;;;;;;22.52;12.65;;;;;;;14.43;100.00;102209.81;5038567;28;20029;-79
2022/10/18 03:03:32;;;;;;;23.77;12.88;;;;;;;14.44;100.00;102213.44;5046225;28;20034;-78
2022/10/18 03:05:58;;;;;;;23.90;13.25;;;;;;;14.40;100.00;102207.28;5038540;28;20087;-79
2022/10/18 03:08:24;;;;;;;28.95;12.65;;;;;;;14.42;100.00;102209.94;5023535;28;20170;-80
2022/10/18 03:10:50;;;;;;;26.58;12.73;;;;;;;14.39;100.00;102205.50;5039398;28;20052;-79
2022/10/18 03:13:16;;;;;;;27.02;12.88;;;;;;;14.36;100.00;102202.09;5028149;28;20116;-79
2022/10/18 03:15:41;;;;;;;28.88;13.23;;;;;;;14.31;100.00;102194.16;5043647;28;20029;-79
2022/10/18 03:18:07;;;;;;;21.58;13.02;;;;;;;14.44;100.00;102222.56;5017530;28;20034;-79
2022/10/18 03:20:33;;;;;;;26.15;13.88;;;;;;;14.41;100.00;102217.28;5037153;28;20494;-79
2022/10/18 03:22:58;;;;;;;22.27;13.70;;;;;;;14.40;100.00;102222.94;5037683;28;20032;-79
2022/10/18 03:25:23;;;;;;;27.42;14.57;;;;;;;14.38;100.00;102219.41;5054251;28;20033;-80
2022/10/18 03:27:49;;;;;;;22.92;13.55;;;;;;;14.35;100.00;102223.28;5024713;28;20120;-81
2022/10/18 03:30:14;;;;;;;25.35;14.35;;;;;;;14.34;100.00;102216.00;5035843;28;20136;-80
2022/10/18 03:32:40;;;;;;;24.15;14.10;;;;;;;14.20;100.00;102200.50;5050739;28;20115;-80
2022/10/18 03:35:08;;;;;;;27.02;14.63;;;;;;;14.36;100.00;102218.63;5051890;28;20115;-80
2022/10/18 03:37:34;;;;;;;23.00;14.23;;;;;;;14.32;100.00;102223.50;5038806;28;20037;-80
2022/10/18 03:39:59;;;;;;;29.45;14.10;;;;;;;14.30;100.00;102229.13;5058630;28;20021;-80
2022/10/18 03:42:25;;;;;;;27.83;14.38;;;;;;;14.31;100.00;102230.00;5025745;28;20048;-80
2022/10/18 03:44:50;;;;;;;30.70;15.45;;;;;;;14.19;100.00;102214.38;5058547;28;20029;-80
2022/10/18 03:47:15;;;;;;;40.40;16.75;;;;;;;14.28;100.00;102227.44;5043194;28;20115;-80
2022/10/18 03:49:41;;;;;;;25.65;14.63;;;;;;;14.34;100.00;102230.63;5016328;28;20037;-80
2022/10/18 03:52:06;;;;;;;30.40;14.48;;;;;;;14.30;100.00;102237.38;5041552;28;20037;-79
2022/10/18 03:54:32;;;;;;;28.67;15.25;;;;;;;14.28;100.00;102225.59;5053844;28;20044;-80
2022/10/18 03:56:57;;;;;;;27.73;15.40;;;;;;;14.30;100.00;102228.25;5026841;28;20068;-79
2022/10/18 03:59:23;;;;;;;32.03;15.02;;;;;;;14.30;100.00;102233.75;5042852;28;20099;-80
2022/10/18 04:01:48;;;;;;;27.30;15.57;;;;;;;14.28;100.00;102230.22;5035299;28;20050;-80
2022/10/18 04:04:17;;;;;;;34.22;16.65;;;;;;;14.22;100.00;102220.53;5041586;28;20029;-81
2022/10/18 04:06:42;;;;;;;31.48;16.08;;;;;;;14.27;100.00;102221.06;5035030;28;20056;-80
2022/10/18 04:09:09;;;;;;;37.15;17.95;;;;;;;14.33;100.00;102220.63;5024997;28;20025;-79
2022/10/18 04:11:34;;;;;;;37.38;18.55;;;;;;;14.36;100.00;102229.66;5061466;28;20036;-80
2022/10/18 04:14:00;;;;;;;41.75;17.50;;;;;;;14.22;100.00;102217.78;5045493;28;20029;-80
2022/10/18 04:16:25;;;;;;;41.28;18.42;;;;;;;14.33;100.00;102225.25;5061224;28;20025;-80
2022/10/18 04:18:51;;;;;;;41.10;19.05;;;;;;;14.32;100.00;102229.00;5043928;28;20037;-79
2022/10/18 04:21:16;;;;;;;39.08;18.70;;;;;;;14.32;100.00;102216.09;5043388;28;20041;-80
2022/10/18 04:23:42;;;;;;;35.03;18.70;;;;;;;14.36;100.00;102214.00;5059043;28;20024;-79
2022/10/18 04:26:09;;;;;;;34.55;17.15;;;;;;;14.25;100.00;102197.38;5046423;28;20029;-79
2022/10/18 04:28:38;;;;;;;44.67;20.75;;;;;;;14.34;100.00;102210.47;5034689;28;20037;-79
2022/10/18 04:31:05;;;;;;;28.85;16.67;;;;;;;14.12;100.00;102194.66;5038112;28;20085;-80
2022/10/18 04:33:32;;;;;;;35.53;18.23;;;;;;;14.16;100.00;102227.34;5043720;28;20029;-79
2022/10/18 04:35:57;;;;;;;34.38;17.80;;;;;;;14.08;100.00;102213.25;5053122;28;20089;-79
2022/10/18 04:38:23;;;;;;;33.28;18.52;;;;;;;14.01;100.00;102200.94;5026149;28;20045;-80
2022/10/18 04:40:50;;;;;;;33.63;18.60;;;;;;;13.98;100.00;102199.25;5045960;28;20037;-79
2022/10/18 04:43:15;;;;;;;39.03;18.83;;;;;;;14.12;100.00;102233.22;5022705;28;20033;-78
2022/10/18 04:45:43;;;;;;;33.92;18.10;;;;;;;13.97;100.00;102210.41;5027786;28;20494;-79
2022/10/18 04:48:10;;;;;;;37.78;20.35;;;;;;;14.11;100.00;102236.94;5040425;28;20029;-80
2022/10/18 04:50:37;;;;;;;35.25;19.88;;;;;;;14.06;100.00;102236.41;5062325;28;20071;-80
2022/10/18 04:53:03;;;;;;;35.30;20.23;;;;;;;14.04;100.00;102231.00;5027708;28;20036;-79
2022/10/18 04:55:28;;;;;;;39.80;20.02;;;;;;;13.93;100.00;102217.13;5019765;28;20033;-79
2022/10/18 04:57:54;;;;;;;42.05;20.98;;;;;;;13.96;100.00;102228.78;5043087;28;20480;-79
2022/10/18 05:00:19;;;;;;;53.70;21.63;;;;;;;13.97;100.00;102232.44;5025769;28;20035;-79
2022/10/18 05:02:45;;;;;;;38.50;20.27;;;;;;;13.95;100.00;102238.06;5050619;28;20485;-78
2022/10/18 05:05:10;;;;;;;39.20;21.67;;;;;;;13.96;100.00;102238.94;5040981;28;20025;-78
2022/10/18 05:07:36;;;;;;;43.70;21.48;;;;;;;13.96;100.00;102238.94;5051005;28;20060;-78
2022/10/18 05:10:03;;;;;;;46.90;21.20;;;;;;;14.01;100.00;102233.09;5021466;28;20049;-78
2022/10/18 05:12:29;;;;;;;45.17;22.70;;;;;;;14.03;100.00;102237.50;5057850;28;20032;-78
2022/10/18 05:14:54;;;;;;;43.03;22.50;;;;;;;13.93;100.00;102226.25;5040379;28;20029;-78
2022/10/18 05:17:19;;;;;;;45.45;22.75;;;;;;;14.00;100.00;102234.09;5041879;28;20040;-78
2022/10/18 05:19:45;;;;;;;52.58;22.92;;;;;;;14.06;100.00;102228.16;5004049;28;20080;-79
2022/10/18 05:22:10;;;;;;;58.35;24.90;;;;;;;13.93;100.00;102212.47;5039514;28;20041;-79
2022/10/18 05:24:36;;;;;;;85.00;30.15;;;;;;;14.08;100.00;102238.03;5058084;28;20029;-79
2022/10/18 05:27:01;;;;;;;160.40;34.28;;;;;;;14.11;100.00;102239.72;5040967;28;20037;-79
2022/10/18 05:29:27;;;;;;;107.97;32.53;;;;;;;14.06;100.00;102240.03;5020840;28;20032;-79
2022/10/18 05:31:53;;;;;;;122.28;35.50;;;;;;;13.96;100.00;102220.53;5039627;28;20171;-77
2022/10/18 05:34:19;;;;;;;127.60;35.45;;;;;;;14.08;100.00;102242.69;5050922;28;20079;-79
2022/10/18 05:36:45;;;;;;;144.90;37.72;;;;;;;14.00;100.00;102228.56;5030956;28;20040;-79
2022/10/18 05:39:10;;;;;;;214.77;39.15;;;;;;;14.10;100.00;102251.69;5040172;28;20032;-79
2022/10/18 05:41:36;;;;;;;139.13;38.10;;;;;;;13.94;100.00;102228.03;5024445;28;20045;-79
2022/10/18 05:44:03;;;;;;;156.57;37.50;;;;;;;14.05;100.00;102246.56;5059856;28;20029;-79
2022/10/18 05:46:28;;;;;;;176.82;39.58;;;;;;;14.01;100.00;102242.25;5061395;28;20033;-79
2022/10/18 05:48:54;;;;;;;159.98;37.95;;;;;;;13.96;100.00;102248.06;5042766;28;20171;-79
2022/10/18 05:51:19;;;;;;;171.98;36.45;;;;;;;13.93;100.00;102264.81;5057839;28;20151;-79
2022/10/18 05:53:46;;;;;;;193.05;36.65;;;;;;;13.88;100.00;102258.75;5038867;28;20029;-79
2022/10/18 05:56:12;;;;;;;225.57;40.28;;;;;;;13.97;100.00;102262.75;5041538;28;20040;-79
2022/10/18 05:58:38;;;;;;;90.93;34.60;;;;;;;13.96;100.00;102267.34;5039432;28;20034;-78
2022/10/18 06:01:04;;;;;;;262.23;38.85;;;;;;;13.92;100.00;102256.66;5050377;28;20064;-78
2022/10/18 06:03:30;;;;;;;137.15;35.05;;;;;;;13.90;100.00;102264.16;5057897;28;20040;-79
2022/10/18 06:06:01;;;;;;;374.48;45.30;;;;;;;13.87;100.00;102272.63;5054405;28;20045;-80
2022/10/18 06:08:27;;;;;;;164.18;38.05;;;;;;;13.86;100.00;102268.13;5055597;28;20048;-78
2022/10/18 06:10:52;;;;;;;178.55;38.40;;;;;;;13.84;100.00;102268.22;5056607;28;20048;-78
2022/10/18 06:13:18;;;;;;;264.27;43.35;;;;;;;13.95;100.00;102279.38;5024703;28;20025;-78
2022/10/18 06:15:44;;;;;;;219.52;38.72;;;;;;;13.94;100.00;102287.75;5040399;28;20111;-79
2022/10/18 06:18:09;;;;;;;225.07;39.65;;;;;;;14.00;100.00;102295.53;5054390;28;20401;-78
2022/10/18 06:20:34;;;;;;;114.70;35.72;;;;;;;13.96;100.00;102292.13;5039321;28;20097;-78
2022/10/18 06:23:00;;;;;;;216.95;38.90;;;;;;;13.91;100.00;102294.31;5022983;28;20048;-79
2022/10/18 06:25:25;;;;;;;162.20;39.05;;;;;;;13.87;100.00;102286.38;5058082;28;20496;-80
2022/10/18 06:27:51;;;;;;;177.85;36.83;;;;;;;13.89;100.00;102289.94;5038101;28;20095;-77
2022/10/18 06:30:16;;;;;;;125.88;35.90;;;;;;;13.90;100.00;102284.28;5019552;28;20471;-78
2022/10/18 06:32:42;;;;;;;112.82;37.28;;;;;;;13.90;100.00;102291.69;5051400;28;20063;-79
2022/10/18 06:35:08;;;;;;;89.38;34.45;;;;;;;13.90;100.00;102289.81;5055461;28;20526;-79
2022/10/18 06:37:34;;;;;;;121.75;32.58;;;;;;;13.93;100.00;102294.22;5037619;28;20045;-78
2022/10/18 06:39:59;;;;;;;160.55;34.67;;;;;;;13.95;100.00;102295.00;5018696;28;20057;-79
2022/10/18 06:42:25;;;;;;;139.43;35.85;;;;;;;13.91;100.00;102299.84;5046817;28;20041;-79
2022/10/18 06:44:50;;;;;;;193.65;38.33;;;;;;;13.92;100.00;102307.13;5032641;28;20069;-80
2022/10/18 06:47:16;;;;;;;107.70;35.47;;;;;;;13.90;100.00;102302.69;5038238;28;20131;-79
2022/10/18 06:49:41;;;;;;;98.70;34.88;;;;;;;13.89;100.00;102311.97;5038206;28;20072;-79
2022/10/18 06:52:06;;;;;;;89.75;34.40;;;;;;;13.88;100.00;102312.94;5055003;28;20040;-79
2022/10/18 06:54:32;;;;;;;100.97;33.90;;;;;;;13.92;100.00;102317.22;5037327;28;20037;-79
2022/10/18 06:56:58;;;;;;;254.25;38.03;;;;;;;13.89;100.00;102312.84;5039042;28;20415;-79
2022/10/18 06:59:23;;;;;;;123.15;34.67;;;;;;;13.87;100.00;102308.41;5037528;28;20048;-80
2022/10/18 07:01:50;;;;;;;107.10;32.50;;;;;;;13.87;100.00;102316.69;5039637;28;20052;-81
2022/10/18 07:04:16;;;;;;;108.13;34.72;;;;;;;13.89;100.00;102320.22;5033137;28;20059;-82
2022/10/18 07:06:42;;;;;;;173.88;34.15;;;;;;;13.94;100.00;102318.91;5054588;28;20033;-79
2022/10/18 07:09:07;;;;;;;88.45;32.67;;;;;;;13.89;100.00;102321.09;5039093;28;20086;-79
2022/10/18 07:11:33;;;;;;;152.10;34.50;;;;;;;13.85;100.00;102333.28;5039313;28;20159;-79
2022/10/18 07:14:02;;;;;;;106.53;34.33;;;;;;;13.81;100.00;102341.88;5038808;28;20041;-79
2022/10/18 07:16:27;;;;;;;122.10;33.03;;;;;;;13.79;100.00;102345.63;5059000;28;20025;-79
2022/10/18 07:18:53;;;;;;;189.35;35.65;;;;;;;13.81;100.00;102348.28;5055000;28;20057;-78
2022/10/18 07:21:21;;;;;;;197.38;34.58;;;;;;;13.81;100.00;102347.38;5058658;28;20044;-79
2022/10/18 07:23:47;;;;;;;264.95;39.20;;;;;;;13.81;100.00;102341.88;5056325;28;20481;-79
2022/10/18 07:26:14;;;;;;;157.13;35.72;;;;;;;13.82;100.00;102350.03;5061025;28;20538;-79
2022/10/18 07:28:40;;;;;;;242.48;36.42;;;;;;;13.75;100.00;102356.94;5059805;28;20072;-80
2022/10/18 07:31:08;;;;;;;239.00;35.22;;;;;;;13.77;100.00;102360.47;5044723;28;20035;-81
2022/10/18 07:33:35;;;;;;;156.13;33.92;;;;;;;13.81;100.00;102364.81;5063893;28;20040;-80
2022/10/18 07:36:02;;;;;;;203.70;35.97;;;;;;;13.83;100.00;102360.06;5026031;28;20040;-80
2022/10/18 07:38:28;;;;;;;275.63;36.47;;;;;;;13.77;100.00;102369.63;5027032;28;20045;-79
2022/10/18 07:40:58;;;;;;;172.48;34.40;;;;;;;13.83;100.00;102381.22;5054298;28;20033;-78
2022/10/18 07:43:24;;;;;;;210.93;37.72;;;;;;;13.78;100.00;102376.00;5053585;28;20086;-79
2022/10/18 07:45:54;;;;;;;106.75;33.83;;;;;;;13.91;100.00;102381.56;5025101;28;20033;-80
2022/10/18 07:48:20;;;;;;;170.25;37.90;;;;;;;13.93;100.00;102385.97;5061296;28;20041;-79
2022/10/18 07:50:45;;;;;;;162.50;33.92;;;;;;;13.94;100.00;102392.38;5062934;28;20044;-78
2022/10/18 07:53:11;;;;;;;123.88;33.50;;;;;;;13.97;100.00;102390.28;5060639;28;20037;-79
2022/10/18 07:55:36;;;;;;;144.18;33.63;;;;;;;14.00;100.00;102397.44;5045807;28;20522;-77
2022/10/18 07:58:02;;;;;;;102.78;33.13;;;;;;;14.01;100.00;102401.09;5028574;28;20039;-78
2022/10/18 08:00:27;;;;;;;147.82;32.65;;;;;;;13.98;100.00;102404.94;5058290;28;20093;-77
2022/10/18 08:02:56;;;;;;;153.77;33.47;;;;;;;14.01;100.00;102412.13;5029854;28;20033;-79
2022/10/18 08:05:21;;;;;;;150.35;34.45;;;;;;;14.00;100.00;102418.59;5044753;28;20044;-80
2022/10/18 08:07:47;;;;;;;135.85;37.28;;;;;;;13.99;100.00;102420.47;5067251;28;20024;-80
2022/10/18 08:10:12;;;;;;;130.60;37.85;;;;;;;13.95;100.00;102433.59;5050567;28;20700;-79
2022/10/18 08:12:38;;;;;;;95.63;36.20;;;;;;;14.02;100.00;102427.63;5067249;28;20041;-81
2022/10/18 08:15:04;;;;;;;114.63;39.60;;;;;;;14.00;100.00;102438.75;5048272;28;20032;-80
2022/10/18 08:17:30;;;;;;;104.05;39.78;;;;;;;13.92;100.00;102438.38;5065792;28;20028;-79
2022/10/18 08:19:56;;;;;;;121.05;40.90;;;;;;;14.01;100.00;102448.78;5060762;28;20480;-80
2022/10/18 08:22:21;;;;;;;97.63;37.63;;;;;;;14.18;100.00;102442.13;5028990;28;20037;-81
2022/10/18 08:24:48;;;;;;;88.15;37.58;;;;;;;14.18;100.00;102439.34;5029923;28;20033;-79
2022/10/18 08:27:14;;;;;;;80.55;34.67;;;;;;;14.09;100.00;102453.78;5058226;28;20101;-79
2022/10/18 08:29:39;;;;;;;76.05;33.30;;;;;;;14.02;100.00;102447.81;5026421;28;20069;-79
2022/10/18 08:32:06;;;;;;;78.35;33.90;;;;;;;14.12;100.00;102450.81;5029078;28;20037;-79
2022/10/18 08:34:33;;;;;;;74.60;34.72;;;;;;;14.35;100.00;102454.75;5042134;28;20038;-80
2022/10/18 08:36:59;;;;;;;73.28;30.90;;;;;;;14.65;100.00;102453.59;5046159;28;20044;-80
2022/10/18 08:39:25;;;;;;;50.08;27.33;;;;;;;14.88;100.00;102463.88;5029409;28;20128;-79
2022/10/18 08:42:08;;;;;;;47.13;24.35;;;;;;;15.01;100.00;102465.75;5027638;28;20057;-80
2022/10/18 08:44:43;;;;;;;53.30;25.50;;;;;;;14.70;100.00;102452.28;5063391;28;20369;-80
2022/10/18 08:47:16;;;;;;;56.22;26.00;;;;;;;14.88;100.00;102455.59;5061737;28;20115;-78
2022/10/18 08:49:57;;;;;;;47.25;23.75;;;;;;;15.55;100.00;102453.53;5061611;28;20034;-79
2022/10/18 08:52:43;;;;;;;50.17;25.63;;;;;;;15.78;100.00;102452.69;5063505;28;20031;-79
2022/10/18 08:55:14;;;;;;;52.10;24.00;;;;;;;15.93;100.00;102458.94;5050513;28;20493;-79
2022/10/18 08:57:48;;;;;;;45.22;24.27;;;;;;;16.46;100.00;102471.50;5061692;28;20045;-79
2022/10/18 09:00:15;;;;;;;45.92;21.48;;;;;;;16.64;100.00;102475.59;5058968;28;20037;-79
2022/10/18 09:02:55;;;;;;;43.72;22.27;;;;;;;16.62;100.00;102480.34;5062487;28;20041;-79
2022/10/18 09:05:34;;;;;;;33.50;19.20;;;;;;;16.87;100.00;102486.72;5059606;28;20041;-78
2022/10/18 09:08:10;;;;;;;42.70;21.80;;;;;;;16.79;100.00;102472.59;5043425;28;20030;-78
2022/10/18 09:10:57;;;;;;;45.03;23.27;;;;;;;17.18;100.00;102487.91;5046348;28;20132;-78
2022/10/18 09:13:43;;;;;;;47.22;21.42;;;;;;;17.74;100.00;102497.19;5055401;28;20033;-78
2022/10/18 09:16:20;;;;;;;36.30;20.75;;;;;;;17.95;100.00;102489.00;5051429;28;20033;-78
2022/10/18 09:19:15;;;;;;;50.92;23.10;;;;;;;17.39;100.00;102493.56;5055581;28;20052;-79
2022/10/18 09:21:57;;;;;;;45.17;24.23;;;;;;;17.02;100.00;102495.69;5032846;28;20037;-78
2022/10/18 09:24:38;;;;;;;54.70;24.85;;;;;;;16.91;100.00;102502.09;5058747;28;20033;-79
2022/10/18 09:27:17;;;;;;;50.67;25.70;;;;;;;16.67;100.00;102491.03;5056945;28;20025;-79
2022/10/18 09:30:05;;;;;;;54.53;25.13;;;;;;;16.35;100.00;102491.69;5058068;28;20028;-79
2022/10/18 09:32:43;;;;;;;52.60;26.58;;;;;;;16.67;100.00;102491.91;5041983;28;20451;-79
2022/10/18 09:35:23;;;;;;;49.50;26.20;;;;;;;16.80;100.00;102479.91;5043894;28;20029;-78
2022/10/18 09:37:53;;;;;;;54.40;25.83;;;;;;;16.71;100.00;102485.16;5059936;28;20064;-80
2022/10/18 09:40:25;;;;;;;50.75;24.77;;;;;;;16.85;100.00;102480.44;5058447;28;20507;-79
2022/10/18 09:43:05;;;;;;;55.00;26.25;;;;;;;16.74;100.00;102481.25;5038725;28;20082;-79
2022/10/18 09:45:36;;;;;;;52.03;24.85;;;;;;;17.42;100.00;102490.56;5048468;28;20396;-78
2022/10/18 09:48:14;;;;;;;43.73;23.07;;;;;;;17.83;100.00;102494.53;5034882;28;20040;-79
2022/10/18 09:50:46;;;;;;;49.13;25.00;;;;;;;17.71;100.00;102501.13;5052514;28;20064;-79
2022/10/18 09:53:23;;;;;;;46.10;24.48;;;;;;;17.33;100.00;102499.63;5059168;28;20056;-79
2022/10/18 09:56:22;;;;;;;49.30;23.48;;;;;;;17.18;100.00;102509.16;5061070;28;20536;-79
2022/10/18 09:58:50;;;;;;;52.47;24.33;;;;;;;16.90;100.00;102503.09;5036576;28;20099;-79
2022/10/18 10:01:20;;;;;;;54.88;26.20;;;;;;;16.66;100.00;102497.56;5062655;28;20485;-79
2022/10/18 10:03:46;;;;;;;46.67;23.20;;;;;;;16.90;100.00;102498.44;5077961;28;20056;-80
2022/10/18 10:06:11;;;;;;;54.42;24.27;;;;;;;16.92;100.00;102484.47;5058820;28;20126;-80
2022/10/18 10:08:41;;;;;;;46.15;23.55;;;;;;;17.31;100.00;102498.84;5039026;28;20028;-81
2022/10/18 10:11:30;;;;;;;46.28;22.10;;;;;;;17.40;100.00;102503.66;5061455;28;20032;-80
2022/10/18 10:14:24;;;;;;;43.47;20.00;;;;;;;17.63;100.00;102506.41;5057349;28;20506;-81
2022/10/18 10:16:55;;;;;;;46.22;19.50;;;;;;;17.68;100.00;102508.81;5052682;28;20044;-81
2022/10/18 10:19:26;;;;;;;47.67;18.58;;;;;;;17.78;100.00;102505.13;5062507;28;20044;-81
2022/10/18 10:21:57;;;;;;;37.70;15.27;;;;;;;17.74;100.00;102511.06;5043660;28;20029;-80
2022/10/18 10:24:33;;;;;;;38.35;17.13;;;;;;;18.02;100.00;102511.53;5053575;28;20044;-80
2022/10/18 10:27:01;;;;;;;36.10;18.23;;;;;;;17.45;100.00;102498.63;5059972;28;20076;-80
2022/10/18 10:29:45;;;;;;;33.13;18.15;;;;;;;17.91;100.00;102495.84;5060545;28;20099;-80
2022/10/18 10:32:13;;;;;;;35.13;16.65;;;;;;;18.06;100.00;102497.31;5045034;28;20045;-80
2022/10/18 10:34:39;;;;;;;39.72;18.80;;;;;;;18.56;100.00;102516.13;5058321;28;20041;-81
2022/10/18 10:37:23;;;;;;;45.05;17.30;;;;;;;18.70;100.00;102496.41;5027572;28;20041;-81
2022/10/18 10:40:12;;;;;;;36.88;18.83;;;;;;;18.43;100.00;102509.91;5033244;28;20741;-80
2022/10/18 10:43:01;;;;;;;38.38;18.17;;;;;;;18.64;100.00;102509.94;5049999;28;20116;-78
2022/10/18 10:45:34;;;;;;;37.17;18.50;;;;;;;18.67;100.00;102515.22;5054183;28;20029;-80
2022/10/18 10:48:18;;;;;;;36.35;17.92;;;;;;;18.91;100.00;102518.66;5053994;28;20040;-80
2022/10/18 10:50:59;;;;;;;37.63;17.42;;;;;;;18.94;100.00;102511.06;5052365;28;20059;-80
2022/10/18 10:53:49;;;;;;;34.40;15.40;;;;;;;19.37;100.00;102513.66;5056287;28;20386;-78
2022/10/18 10:56:27;;;;;;;30.25;15.00;;;;;;;19.61;100.00;102520.75;5045644;28;20084;-79
2022/10/18 10:58:54;;;;;;;34.45;18.98;;;;;;;18.92;100.00;102506.53;5053006;28;20079;-79
2022/10/18 11:01:24;;;;;;;44.10;18.08;;;;;;;19.15;100.00;102513.81;5022625;28;20047;-79
2022/10/18 11:03:52;;;;;;;40.28;16.30;;;;;;;18.74;100.00;102520.09;5037469;28;20469;-78
2022/10/18 11:06:50;;;;;;;37.67;16.30;;;;;;;18.39;100.00;102523.16;5046287;28;20036;-78
2022/10/18 11:09:44;;;;;;;43.17;16.45;;;;;;;17.91;100.00;102520.78;5031882;28;20057;-80
2022/10/18 11:12:24;;;;;;;32.22;16.08;;;;;;;17.53;100.00;102519.25;5056675;28;20032;-80